createdAt,value
2017-08-24T00:01:41.149Z,22.38
2017-08-24T00:04:08.737Z,22.40
2017-08-24T00:06:36.198Z,22.48
2017-08-24T00:09:03.652Z,22.57
2017-08-24T00:11:31.140Z,22.53
2017-08-24T00:13:58.596Z,22.54
2017-08-24T00:16:26.104Z,22.50
2017-08-24T00:18:53.582Z,22.44
2017-08-24T00:21:21.062Z,22.43
2017-08-24T00:23:48.556Z,22.36
2017-08-24T00:26:16.046Z,22.23
2017-08-24T00:28:43.510Z,22.28
2017-08-24T00:31:11.011Z,22.39
2017-08-24T00:33:38.507Z,22.32
2017-08-24T00:36:05.963Z,22.31
2017-08-24T00:38:33.462Z,22.36
2017-08-24T00:41:01.622Z,22.31
2017-08-24T00:43:29.095Z,22.35
2017-08-24T00:45:56.601Z,22.38
2017-08-24T00:48:24.099Z,22.36
2017-08-24T00:50:51.577Z,22.27
2017-08-24T00:53:19.100Z,22.22
2017-08-24T00:55:46.586Z,22.14
2017-08-24T00:58:14.069Z,22.25
2017-08-24T01:00:41.554Z,22.16
2017-08-24T01:03:09.062Z,22.09
2017-08-24T01:05:36.525Z,22.06
2017-08-24T01:08:04.019Z,22.00
2017-08-24T01:10:31.493Z,21.97
2017-08-24T01:12:58.968Z,21.92
2017-08-24T01:15:26.464Z,21.91
2017-08-24T01:17:53.950Z,21.95
2017-08-24T01:20:21.426Z,21.99
2017-08-24T01:22:48.920Z,22.02
2017-08-24T01:25:16.433Z,22.02
2017-08-24T01:27:43.937Z,22.02
2017-08-24T01:30:11.430Z,22.00
2017-08-24T01:32:38.924Z,22.00
2017-08-24T01:35:06.421Z,21.94
2017-08-24T01:37:34.312Z,21.90
2017-08-24T01:40:01.782Z,21.94
2017-08-24T01:42:29.237Z,21.89
2017-08-24T01:44:56.735Z,21.85
2017-08-24T01:47:24.996Z,21.87
2017-08-24T01:49:52.520Z,21.87
2017-08-24T01:52:19.993Z,21.94
2017-08-24T01:54:47.473Z,21.93
2017-08-24T01:57:14.940Z,21.91
2017-08-24T01:59:42.466Z,21.86
2017-08-24T02:02:09.948Z,21.96
2017-08-24T02:04:37.415Z,22.03
2017-08-24T02:07:06.368Z,21.92
2017-08-24T02:09:33.853Z,21.90
2017-08-24T02:12:01.333Z,21.85
2017-08-24T02:14:28.782Z,21.89
2017-08-24T02:16:56.289Z,21.84
2017-08-24T02:19:23.760Z,21.83
2017-08-24T02:21:51.256Z,21.89
2017-08-24T02:24:18.718Z,21.89
2017-08-24T02:26:46.231Z,21.91
2017-08-24T02:29:13.706Z,21.86
2017-08-24T02:31:41.185Z,21.81
2017-08-24T02:34:08.675Z,21.83
2017-08-24T02:36:36.161Z,21.78
2017-08-24T02:39:03.641Z,21.80
2017-08-24T02:41:31.160Z,21.81
2017-08-24T02:43:58.669Z,21.79
2017-08-24T02:46:26.160Z,21.62
2017-08-24T02:48:53.671Z,21.69
2017-08-24T02:51:21.125Z,21.66
2017-08-24T02:53:48.612Z,21.64
2017-08-24T02:56:16.081Z,21.69
2017-08-24T02:58:43.578Z,21.75
2017-08-24T03:01:11.043Z,21.81
2017-08-24T03:03:38.652Z,21.84
2017-08-24T03:06:06.113Z,21.86
2017-08-24T03:08:33.572Z,21.94
2017-08-24T03:11:01.087Z,21.94
2017-08-24T03:13:28.552Z,22.05
2017-08-24T03:15:56.038Z,22.17
2017-08-24T03:18:23.502Z,22.26
2017-08-24T03:20:50.989Z,22.22
2017-08-24T03:23:18.543Z,22.18
2017-08-24T03:25:46.034Z,22.02
2017-08-24T03:28:13.513Z,21.90
2017-08-24T03:30:41.017Z,21.79
2017-08-24T03:33:08.473Z,21.73
2017-08-24T03:35:36.312Z,21.80
2017-08-24T03:38:03.787Z,21.84
2017-08-24T03:40:31.566Z,21.77
2017-08-24T03:42:59.052Z,21.76
2017-08-24T03:45:26.568Z,21.76
2017-08-24T03:47:54.064Z,21.74
2017-08-24T03:50:21.545Z,21.71
2017-08-24T03:52:49.055Z,21.70
2017-08-24T03:55:16.509Z,21.75
2017-08-24T03:57:44.003Z,21.79
2017-08-24T04:00:11.495Z,21.72
2017-08-24T04:02:38.998Z,21.74
2017-08-24T04:05:06.474Z,21.71
2017-08-24T04:07:33.984Z,21.66
2017-08-24T04:10:01.664Z,21.68
2017-08-24T04:12:29.189Z,21.66
2017-08-24T04:14:56.746Z,21.76
2017-08-24T04:17:24.237Z,21.77
2017-08-24T04:19:51.744Z,21.78
2017-08-24T04:22:19.227Z,21.78
2017-08-24T04:24:46.736Z,21.79
2017-08-24T04:27:14.203Z,21.79
2017-08-24T04:29:41.688Z,21.76
2017-08-24T04:32:09.157Z,21.78
2017-08-24T04:34:36.662Z,21.84
2017-08-24T04:37:05.442Z,21.83
2017-08-24T04:39:32.980Z,21.95
2017-08-24T04:42:00.460Z,22.03
2017-08-24T04:44:27.993Z,22.07
2017-08-24T04:46:55.485Z,22.13
2017-08-24T04:49:22.982Z,22.16
2017-08-24T04:51:50.444Z,22.28
2017-08-24T04:54:18.060Z,22.36
2017-08-24T04:56:45.547Z,22.41
2017-08-24T04:59:13.056Z,22.36
2017-08-24T05:01:40.573Z,22.36
2017-08-24T05:04:08.090Z,22.41
2017-08-24T05:06:35.628Z,22.45
2017-08-24T05:09:03.112Z,22.49
2017-08-24T05:11:30.633Z,22.56
2017-08-24T05:13:58.092Z,22.60
2017-08-24T05:16:25.592Z,22.56
2017-08-24T05:18:53.087Z,22.55
2017-08-24T05:21:20.538Z,22.53
2017-08-24T05:23:48.301Z,22.60
2017-08-24T05:26:15.789Z,22.59
2017-08-24T05:28:43.271Z,22.56
2017-08-24T05:31:10.771Z,22.57
2017-08-24T05:33:38.297Z,22.64
2017-08-24T05:36:06.115Z,22.65
2017-08-24T05:38:35.481Z,22.63
2017-08-24T05:41:03.010Z,22.72
2017-08-24T05:43:30.514Z,22.78
2017-08-24T05:45:58.002Z,22.77
2017-08-24T05:48:25.464Z,22.81
2017-08-24T05:50:52.953Z,22.86
2017-08-24T05:53:20.416Z,22.85
2017-08-24T05:55:47.982Z,22.85
2017-08-24T05:58:15.497Z,22.85
2017-08-24T06:00:42.974Z,22.79
2017-08-24T06:03:10.469Z,22.79
2017-08-24T06:05:37.970Z,22.83
2017-08-24T06:08:05.480Z,22.83
2017-08-24T06:10:32.986Z,22.82
2017-08-24T06:13:00.553Z,22.82
2017-08-24T06:15:28.033Z,22.83
2017-08-24T06:17:55.555Z,22.84
2017-08-24T06:20:23.094Z,22.92
2017-08-24T06:22:50.587Z,22.93
2017-08-24T06:25:18.088Z,22.99
2017-08-24T06:27:45.584Z,23.11
2017-08-24T06:30:13.074Z,23.16
2017-08-24T06:32:41.040Z,23.24
2017-08-24T06:35:08.545Z,23.39
2017-08-24T06:37:36.072Z,23.52
2017-08-24T06:40:03.604Z,23.51
2017-08-24T06:42:31.129Z,23.50
2017-08-24T06:44:58.628Z,23.52
2017-08-24T06:47:26.094Z,23.51
2017-08-24T06:49:53.609Z,23.51
2017-08-24T06:52:21.060Z,23.51
2017-08-24T06:54:48.876Z,23.56
2017-08-24T06:57:16.379Z,23.66
2017-08-24T06:59:43.899Z,23.65
2017-08-24T07:02:11.402Z,23.68
2017-08-24T07:04:38.892Z,23.63
2017-08-24T07:07:06.341Z,23.54
2017-08-24T07:09:33.862Z,23.67
2017-08-24T07:12:01.354Z,23.67
2017-08-24T07:14:28.805Z,23.68
2017-08-24T07:16:56.284Z,23.73
2017-08-24T07:19:23.752Z,23.86
2017-08-24T07:21:51.262Z,23.82
2017-08-24T07:24:18.719Z,23.97
2017-08-24T07:26:46.255Z,23.88
2017-08-24T07:29:14.182Z,24.08
2017-08-24T07:31:41.671Z,24.14
2017-08-24T07:34:09.147Z,24.19
2017-08-24T07:36:36.783Z,24.30
2017-08-24T07:39:04.252Z,24.24
2017-08-24T07:41:31.829Z,24.07
2017-08-24T07:43:59.313Z,24.10
2017-08-24T07:46:26.803Z,24.07
2017-08-24T07:48:54.349Z,24.20
2017-08-24T07:51:21.810Z,24.15
2017-08-24T07:53:49.445Z,24.26
2017-08-24T07:56:17.167Z,24.33
2017-08-24T07:58:44.710Z,24.38
2017-08-24T08:01:13.251Z,24.42
2017-08-24T08:03:40.882Z,24.36
2017-08-24T08:06:08.342Z,24.31
2017-08-24T08:08:35.815Z,24.41
2017-08-24T08:11:03.293Z,24.28
2017-08-24T08:13:30.836Z,24.18
2017-08-24T08:15:58.338Z,24.16
2017-08-24T08:18:25.893Z,24.39
2017-08-24T08:20:53.431Z,24.45
2017-08-24T08:23:20.921Z,24.47
2017-08-24T08:25:48.414Z,24.51
2017-08-24T08:28:15.995Z,24.59
2017-08-24T08:30:43.479Z,24.54
2017-08-24T08:33:11.015Z,24.63
2017-08-24T08:35:38.522Z,24.65
2017-08-24T08:38:06.036Z,24.39
2017-08-24T08:40:33.523Z,24.43
2017-08-24T08:43:01.031Z,24.66
2017-08-24T08:45:28.509Z,24.78
2017-08-24T08:47:55.998Z,25.02
2017-08-24T08:50:23.449Z,25.11
2017-08-24T08:52:51.185Z,25.20
2017-08-24T08:55:18.645Z,25.18
2017-08-24T08:57:46.137Z,25.13
2017-08-24T09:00:13.655Z,25.15
2017-08-24T09:02:41.141Z,25.29
2017-08-24T09:05:08.685Z,25.24
2017-08-24T09:07:36.164Z,25.07
2017-08-24T09:10:03.672Z,24.91
2017-08-24T09:12:31.181Z,25.08
2017-08-24T09:14:58.918Z,25.12
2017-08-24T09:17:26.386Z,24.97
2017-08-24T09:19:53.941Z,25.21
2017-08-24T09:22:21.432Z,25.35
2017-08-24T09:24:48.957Z,25.43
2017-08-24T09:27:16.436Z,25.00
2017-08-24T09:29:43.933Z,24.87
2017-08-24T09:32:11.411Z,25.19
2017-08-24T09:34:38.861Z,25.52
2017-08-24T09:37:06.340Z,25.62
2017-08-24T09:39:34.133Z,25.47
2017-08-24T09:42:01.642Z,25.44
2017-08-24T09:44:29.140Z,25.23
2017-08-24T09:46:56.636Z,25.48
2017-08-24T09:49:24.195Z,25.48
2017-08-24T09:51:52.702Z,25.55
2017-08-24T09:54:20.211Z,25.74
2017-08-24T09:56:47.702Z,25.69
2017-08-24T09:59:15.272Z,25.83
2017-08-24T10:01:42.772Z,25.86
2017-08-24T10:04:10.985Z,25.79
2017-08-24T10:06:38.455Z,25.74
2017-08-24T10:09:06.722Z,25.86
2017-08-24T10:11:34.236Z,25.87
2017-08-24T10:14:01.770Z,25.68
2017-08-24T10:16:29.241Z,25.70
2017-08-24T10:18:56.739Z,25.80
2017-08-24T10:21:24.225Z,26.00
2017-08-24T10:23:51.723Z,25.97
2017-08-24T10:26:19.202Z,25.82
2017-08-24T10:28:46.739Z,25.61
2017-08-24T10:31:14.177Z,25.64
2017-08-24T10:33:41.625Z,25.86
2017-08-24T10:36:09.132Z,25.97
2017-08-24T10:38:37.559Z,25.62
2017-08-24T10:41:05.412Z,25.55
2017-08-24T10:43:32.891Z,25.55
2017-08-24T10:46:00.431Z,25.39
2017-08-24T10:48:27.924Z,25.45
2017-08-24T10:50:55.457Z,25.61
2017-08-24T10:53:22.950Z,25.61
2017-08-24T10:55:50.546Z,25.70
2017-08-24T10:58:18.035Z,25.88
2017-08-24T11:00:45.488Z,25.99
2017-08-24T11:03:12.986Z,25.99
2017-08-24T11:05:40.451Z,26.01
2017-08-24T11:08:07.939Z,26.02
2017-08-24T11:10:35.417Z,26.04
2017-08-24T11:13:02.919Z,26.21
2017-08-24T11:15:30.420Z,26.08
2017-08-24T11:17:57.903Z,26.08
2017-08-24T11:20:25.451Z,26.24
2017-08-24T11:22:52.926Z,26.40
2017-08-24T11:25:20.925Z,26.61
2017-08-24T11:27:48.455Z,26.70
2017-08-24T11:30:15.970Z,26.75
2017-08-24T11:32:43.445Z,26.96
2017-08-24T11:35:10.976Z,26.90
2017-08-24T11:37:38.507Z,27.02
2017-08-24T11:40:06.037Z,27.05
2017-08-24T11:42:33.532Z,26.93
2017-08-24T11:45:01.131Z,26.96
2017-08-24T11:47:28.517Z,27.07
2017-08-24T11:49:56.039Z,27.14
2017-08-24T11:52:24.448Z,27.00
2017-08-24T11:54:52.075Z,27.36
2017-08-24T11:57:19.569Z,27.61
2017-08-24T11:59:47.104Z,27.36
2017-08-24T12:02:14.641Z,27.46
2017-08-24T12:04:42.110Z,27.58
2017-08-24T12:07:09.599Z,27.48
2017-08-24T12:09:37.105Z,27.29
2017-08-24T12:12:05.146Z,27.36
2017-08-24T12:14:32.621Z,27.50
2017-08-24T12:17:00.150Z,27.61
2017-08-24T12:19:27.614Z,27.70
2017-08-24T12:21:55.098Z,27.56
2017-08-24T12:24:22.612Z,27.68
2017-08-24T12:26:50.067Z,27.76
2017-08-24T12:29:17.546Z,27.53
2017-08-24T12:31:45.047Z,27.48
2017-08-24T12:34:12.729Z,27.66
2017-08-24T12:36:40.222Z,27.85
2017-08-24T12:39:08.163Z,27.77
2017-08-24T12:41:35.727Z,27.88
2017-08-24T12:44:06.367Z,27.51
2017-08-24T12:46:33.916Z,27.22
2017-08-24T12:49:01.432Z,27.41
2017-08-24T12:51:28.876Z,27.44
2017-08-24T12:53:56.745Z,27.31
2017-08-24T12:56:24.249Z,27.58
2017-08-24T12:58:51.728Z,27.51
2017-08-24T13:01:19.214Z,27.61
2017-08-24T13:03:46.668Z,27.46
2017-08-24T13:06:14.215Z,27.46
2017-08-24T13:08:41.744Z,27.18
2017-08-24T13:11:09.687Z,27.39
2017-08-24T13:13:37.192Z,27.46
2017-08-24T13:16:05.379Z,27.48
2017-08-24T13:18:33.637Z,27.68
2017-08-24T13:21:01.151Z,27.80
2017-08-24T13:23:28.707Z,28.14
2017-08-24T13:25:56.196Z,28.12
2017-08-24T13:28:24.370Z,28.37
2017-08-24T13:30:51.844Z,28.23
2017-08-24T13:33:19.382Z,28.15
2017-08-24T13:35:46.864Z,28.27
2017-08-24T13:38:14.446Z,28.48
2017-08-24T13:40:41.995Z,28.48
2017-08-24T13:43:09.487Z,28.62
2017-08-24T13:45:37.012Z,28.62
2017-08-24T13:48:04.890Z,28.66
2017-08-24T13:50:32.402Z,28.43
2017-08-24T13:52:59.883Z,28.43
2017-08-24T13:55:27.666Z,28.47
2017-08-24T13:57:55.152Z,28.61
2017-08-24T14:00:22.646Z,28.82
2017-08-24T14:02:50.213Z,28.98
2017-08-24T14:05:17.730Z,29.10
2017-08-24T14:07:45.188Z,28.93
2017-08-24T14:10:12.689Z,29.13
2017-08-24T14:12:40.214Z,29.14
2017-08-24T14:15:07.814Z,29.06
2017-08-24T14:17:35.315Z,28.80
2017-08-24T14:20:02.805Z,28.59
2017-08-24T14:22:30.326Z,28.45
2017-08-24T14:24:57.827Z,28.37
2017-08-24T14:27:25.341Z,28.45
2017-08-24T14:29:52.813Z,28.27
2017-08-24T14:32:20.362Z,28.20
2017-08-24T14:34:47.821Z,28.29
2017-08-24T14:37:16.180Z,28.45
2017-08-24T14:39:43.788Z,28.64
2017-08-24T14:42:11.322Z,28.85
2017-08-24T14:44:39.383Z,29.23
2017-08-24T14:47:06.900Z,29.35
2017-08-24T14:49:34.410Z,29.33
2017-08-24T14:52:01.902Z,29.31
2017-08-24T14:54:29.451Z,28.97
2017-08-24T14:56:57.665Z,29.25
2017-08-24T14:59:26.088Z,29.74
2017-08-24T15:01:54.457Z,29.83
2017-08-24T15:04:21.949Z,30.52
2017-08-24T15:06:50.625Z,31.03
2017-08-24T15:09:18.098Z,31.21
2017-08-24T15:11:47.654Z,31.38
2017-08-24T15:14:15.178Z,31.14
2017-08-24T15:16:42.669Z,30.86
2017-08-24T15:19:10.277Z,30.37
2017-08-24T15:21:37.809Z,30.45
2017-08-24T15:24:05.659Z,30.36
2017-08-24T15:26:33.215Z,29.96
2017-08-24T15:29:01.230Z,29.74
2017-08-24T15:31:29.108Z,28.80
2017-08-24T15:33:56.569Z,28.51
2017-08-24T15:36:24.888Z,28.37
2017-08-24T15:38:52.378Z,28.35
2017-08-24T15:41:19.891Z,28.09
2017-08-24T15:43:47.366Z,27.57
2017-08-24T15:46:14.890Z,27.46
2017-08-24T15:48:42.381Z,27.28
2017-08-24T15:51:09.866Z,27.45
2017-08-24T15:53:37.425Z,27.54
2017-08-24T15:56:05.743Z,27.35
2017-08-24T15:58:33.262Z,27.20
2017-08-24T16:01:00.717Z,27.46
2017-08-24T16:03:28.235Z,27.56
2017-08-24T16:05:56.017Z,27.72
2017-08-24T16:08:23.703Z,27.87
2017-08-24T16:10:52.229Z,27.84
2017-08-24T16:13:19.855Z,27.91
2017-08-24T16:15:47.351Z,28.22
2017-08-24T16:18:14.849Z,28.61
2017-08-24T16:20:42.337Z,28.78
2017-08-24T16:23:09.819Z,28.68
2017-08-24T16:25:37.302Z,28.44
2017-08-24T16:28:04.920Z,28.23
2017-08-24T16:30:32.428Z,28.18
2017-08-24T16:32:59.895Z,28.16
2017-08-24T16:35:27.379Z,28.31
2017-08-24T16:37:58.265Z,28.11
2017-08-24T16:40:26.560Z,27.78
2017-08-24T16:42:54.086Z,27.88
2017-08-24T16:45:21.585Z,27.62
2017-08-24T16:47:49.069Z,27.94
2017-08-24T16:50:16.652Z,28.08
2017-08-24T16:52:44.129Z,27.85
2017-08-24T16:55:11.764Z,27.59
2017-08-24T16:57:39.322Z,27.30
2017-08-24T17:00:06.790Z,27.20
2017-08-24T17:02:34.293Z,27.08
2017-08-24T17:05:01.745Z,27.03
2017-08-24T17:07:29.222Z,27.15
2017-08-24T17:09:56.724Z,27.12
2017-08-24T17:12:24.204Z,27.06
2017-08-24T17:14:51.695Z,27.05
2017-08-24T17:17:19.150Z,26.87
2017-08-24T17:19:46.627Z,26.57
2017-08-24T17:22:14.140Z,26.44
2017-08-24T17:24:41.635Z,26.58
2017-08-24T17:27:09.505Z,26.64
2017-08-24T17:29:36.990Z,26.67
2017-08-24T17:32:04.861Z,26.44
2017-08-24T17:34:32.361Z,26.24
2017-08-24T17:36:59.820Z,26.19
2017-08-24T17:39:27.311Z,26.10
2017-08-24T17:41:54.833Z,26.09
2017-08-24T17:44:22.334Z,26.16
2017-08-24T17:46:49.801Z,26.39
2017-08-24T17:49:17.316Z,26.44
2017-08-24T17:51:44.769Z,26.47
2017-08-24T17:54:12.233Z,26.45
2017-08-24T17:56:39.733Z,26.60
2017-08-24T17:59:07.212Z,26.45
2017-08-24T18:01:34.724Z,26.03
2017-08-24T18:04:03.179Z,25.71
2017-08-24T18:06:30.681Z,25.74
2017-08-24T18:08:58.160Z,25.17
2017-08-24T18:11:25.644Z,25.79
2017-08-24T18:13:53.089Z,25.71
2017-08-24T18:16:20.581Z,26.03
2017-08-24T18:18:48.047Z,26.10
2017-08-24T18:21:15.816Z,26.17
2017-08-24T18:23:43.286Z,26.22
2017-08-24T18:26:10.743Z,26.43
2017-08-24T18:28:38.234Z,26.45
2017-08-24T18:31:05.686Z,26.41
2017-08-24T18:33:33.175Z,26.57
2017-08-24T18:36:00.642Z,26.73
2017-08-24T18:38:28.136Z,26.82
2017-08-24T18:40:55.634Z,26.78
2017-08-24T18:43:23.662Z,26.59
2017-08-24T18:45:51.127Z,26.39
2017-08-24T18:48:18.621Z,26.15
2017-08-24T18:50:46.094Z,26.03
2017-08-24T18:53:13.542Z,25.91
2017-08-24T18:55:41.129Z,25.81
2017-08-24T18:58:08.591Z,25.84
2017-08-24T19:00:36.183Z,25.85
2017-08-24T19:03:03.657Z,25.82
2017-08-24T19:05:31.157Z,25.88
2017-08-24T19:07:58.608Z,25.78
2017-08-24T19:10:26.096Z,25.72
2017-08-24T19:12:53.609Z,25.65
2017-08-24T19:15:21.078Z,25.58
2017-08-24T19:17:48.623Z,25.55
2017-08-24T19:20:16.126Z,25.54
2017-08-24T19:22:43.667Z,25.42
2017-08-24T19:25:11.172Z,25.21
2017-08-24T19:27:38.670Z,25.20
2017-08-24T19:30:06.121Z,25.17
2017-08-24T19:32:33.669Z,25.19
2017-08-24T19:35:01.150Z,25.10
2017-08-24T19:37:29.127Z,25.03
2017-08-24T19:39:56.644Z,24.84
2017-08-24T19:42:24.131Z,24.94
2017-08-24T19:44:52.166Z,24.74
2017-08-24T19:47:19.642Z,24.63
2017-08-24T19:49:47.228Z,24.61
2017-08-24T19:52:14.687Z,24.63
2017-08-24T19:54:42.151Z,24.56
2017-08-24T19:57:09.665Z,24.45
2017-08-24T19:59:37.150Z,23.95
2017-08-24T20:02:04.652Z,24.32
2017-08-24T20:04:32.130Z,24.30
2017-08-24T20:06:59.643Z,24.19
2017-08-24T20:09:27.123Z,24.09
2017-08-24T20:11:54.600Z,24.00
2017-08-24T20:14:22.117Z,23.85
2017-08-24T20:16:49.835Z,23.74
2017-08-24T20:19:17.294Z,23.67
2017-08-24T20:21:44.776Z,23.50
2017-08-24T20:24:12.251Z,23.37
2017-08-24T20:26:39.788Z,23.38
2017-08-24T20:29:07.295Z,23.28
2017-08-24T20:31:34.778Z,23.27
2017-08-24T20:34:02.304Z,23.14
2017-08-24T20:36:29.784Z,23.00
2017-08-24T20:38:57.265Z,22.95
2017-08-24T20:41:24.726Z,22.76
2017-08-24T20:43:52.609Z,22.63
2017-08-24T20:46:20.110Z,22.74
2017-08-24T20:48:47.576Z,22.79
2017-08-24T20:51:15.069Z,22.82
2017-08-24T20:53:42.518Z,22.72
2017-08-24T20:56:09.978Z,22.55
2017-08-24T20:58:37.492Z,22.51
2017-08-24T21:01:05.003Z,22.51
2017-08-24T21:03:33.475Z,22.45
2017-08-24T21:06:01.053Z,22.55
2017-08-24T21:08:28.506Z,22.54
2017-08-24T21:10:56.004Z,22.38
2017-08-24T21:13:23.466Z,22.35
2017-08-24T21:15:50.966Z,22.31
2017-08-24T21:18:18.417Z,22.09
2017-08-24T21:20:45.895Z,22.16
2017-08-24T21:23:13.398Z,22.07
2017-08-24T21:25:40.853Z,22.10
2017-08-24T21:28:08.358Z,22.05
2017-08-24T21:30:35.809Z,22.02
2017-08-24T21:33:03.302Z,22.01
2017-08-24T21:35:30.789Z,21.97
2017-08-24T21:37:58.538Z,21.96
2017-08-24T21:40:26.201Z,21.91
2017-08-24T21:42:53.712Z,22.00
2017-08-24T21:45:21.164Z,22.40
2017-08-24T21:47:48.688Z,22.71
2017-08-24T21:50:16.163Z,22.87
2017-08-24T21:52:43.694Z,22.95
2017-08-24T21:55:11.201Z,22.80
2017-08-24T21:57:38.686Z,22.39
2017-08-24T22:00:06.192Z,22.19
2017-08-24T22:02:33.666Z,22.08
2017-08-24T22:05:02.821Z,21.95
2017-08-24T22:07:30.370Z,21.86
2017-08-24T22:09:57.831Z,21.90
2017-08-24T22:12:25.353Z,21.91
2017-08-24T22:14:52.806Z,21.91
2017-08-24T22:17:20.282Z,21.92
2017-08-24T22:19:47.794Z,21.94
2017-08-24T22:22:15.318Z,21.85
2017-08-24T22:24:42.792Z,21.77
2017-08-24T22:27:10.446Z,21.78
2017-08-24T22:29:37.896Z,21.78
2017-08-24T22:32:05.360Z,21.71
2017-08-24T22:34:37.423Z,21.68
2017-08-24T22:37:04.883Z,21.65
2017-08-24T22:39:32.422Z,21.76
2017-08-24T22:41:59.894Z,21.69
2017-08-24T22:44:27.460Z,21.57
2017-08-24T22:46:54.908Z,21.59
2017-08-24T22:49:22.394Z,21.56
2017-08-24T22:51:49.923Z,21.45
2017-08-24T22:54:22.922Z,21.53
2017-08-24T22:56:55.932Z,21.56
2017-08-24T22:59:29.033Z,21.48
2017-08-24T23:02:02.107Z,21.52
2017-08-24T23:04:29.613Z,21.38
2017-08-24T23:06:57.078Z,21.42
2017-08-24T23:09:24.571Z,21.44
2017-08-24T23:11:52.047Z,21.42
2017-08-24T23:14:19.499Z,21.44
2017-08-24T23:16:46.973Z,21.37
2017-08-24T23:19:14.457Z,21.37
2017-08-24T23:21:41.937Z,21.31
2017-08-24T23:24:09.390Z,21.41
2017-08-24T23:26:36.869Z,21.33
2017-08-24T23:29:04.381Z,21.38
2017-08-24T23:31:31.908Z,21.27
2017-08-24T23:33:59.381Z,21.24
2017-08-24T23:36:26.879Z,21.27
2017-08-24T23:38:54.332Z,21.21
2017-08-24T23:41:21.798Z,21.27
2017-08-24T23:43:49.286Z,21.20
2017-08-24T23:46:16.769Z,21.17
2017-08-24T23:48:44.285Z,21.12
2017-08-24T23:51:11.758Z,21.09
2017-08-24T23:53:40.111Z,20.98
2017-08-24T23:56:07.563Z,21.04
2017-08-24T23:58:35.037Z,21.11
